createdAt,value
2019-06-15T00:00:50.137Z,76820.81
2019-06-15T00:03:16.030Z,76815.81
2019-06-15T00:05:41.900Z,76818.81
2019-06-15T00:08:07.755Z,76812.81
2019-06-15T00:10:33.640Z,76813.81
2019-06-15T00:12:59.546Z,76812.81
2019-06-15T00:15:25.400Z,76806.80
2019-06-15T00:17:51.298Z,76807.80
2019-06-15T00:20:17.162Z,76800.80
2019-06-15T00:22:43.077Z,76798.80
2019-06-15T00:25:08.934Z,76799.80
2019-06-15T00:27:34.792Z,76790.79
2019-06-15T00:30:00.653Z,76788.78
2019-06-15T00:32:26.534Z,76786.78
2019-06-15T00:34:52.420Z,76787.78
2019-06-15T00:37:18.294Z,76784.78
2019-06-15T00:39:44.158Z,76784.78
2019-06-15T00:42:10.129Z,76777.78
2019-06-15T00:44:38.544Z,76768.77
2019-06-15T00:47:04.397Z,76770.77
2019-06-15T00:49:30.263Z,76770.77
2019-06-15T00:51:56.139Z,76760.77
2019-06-15T00:54:22.280Z,76756.77
2019-06-15T00:56:48.144Z,76747.75
2019-06-15T00:59:14.026Z,76743.75
2019-06-15T01:01:39.919Z,76741.75
2019-06-15T01:04:07.069Z,76741.75
2019-06-15T01:06:32.978Z,76741.75
2019-06-15T01:08:58.848Z,76742.75
2019-06-15T01:11:24.709Z,76738.75
2019-06-15T01:13:50.584Z,76738.75
2019-06-15T01:16:16.529Z,76740.75
2019-06-15T01:18:42.406Z,76734.75
2019-06-15T01:21:08.300Z,76734.75
2019-06-15T01:23:34.186Z,76745.75
2019-06-15T01:26:00.052Z,76745.75
2019-06-15T01:28:25.953Z,76743.75
2019-06-15T01:30:52.101Z,76738.75
2019-06-15T01:33:17.965Z,76734.75
2019-06-15T01:35:43.941Z,76726.73
2019-06-15T01:38:09.822Z,76726.73
2019-06-15T01:40:35.701Z,76719.73
2019-06-15T01:43:01.605Z,76724.73
2019-06-15T01:45:27.464Z,76722.73
2019-06-15T01:47:53.838Z,76726.73
2019-06-15T01:50:19.714Z,76728.74
2019-06-15T01:52:45.595Z,76725.73
2019-06-15T01:55:20.616Z,76726.73
2019-06-15T01:57:39.432Z,76718.73
2019-06-15T02:00:05.323Z,76715.73
2019-06-15T02:02:31.220Z,76729.74
2019-06-15T02:04:57.111Z,76736.75
2019-06-15T02:07:22.984Z,76742.75
2019-06-15T02:09:48.890Z,76742.75
2019-06-15T02:12:14.763Z,76763.77
2019-06-15T02:14:40.790Z,76774.78
2019-06-15T02:17:09.784Z,76766.77
2019-06-15T02:19:35.678Z,76756.77
2019-06-15T02:22:01.587Z,76752.76
2019-06-15T02:24:27.468Z,76754.77
2019-06-15T02:26:53.333Z,76756.77
2019-06-15T02:29:19.224Z,76752.76
2019-06-15T02:31:45.090Z,76747.75
2019-06-15T02:34:11.260Z,76738.75
2019-06-15T02:36:37.150Z,76740.75
2019-06-15T02:39:04.626Z,76731.74
2019-06-15T02:41:30.485Z,76732.75
2019-06-15T02:43:56.367Z,76735.75
2019-06-15T02:46:25.983Z,76739.75
2019-06-15T02:48:49.973Z,76742.75
2019-06-15T02:51:15.844Z,76735.75
2019-06-15T02:53:41.704Z,76716.73
2019-06-15T02:56:07.582Z,76704.72
2019-06-15T02:58:33.732Z,76699.72
2019-06-15T03:01:04.629Z,76684.70
2019-06-15T03:03:30.498Z,76680.70
2019-06-15T03:05:56.373Z,76669.70
2019-06-15T03:08:22.233Z,76660.69
2019-06-15T03:10:48.104Z,76639.67
2019-06-15T03:13:13.979Z,76620.66
2019-06-15T03:15:40.159Z,76602.64
2019-06-15T03:18:08.355Z,76599.64
2019-06-15T03:20:34.250Z,76591.64
2019-06-15T03:23:00.127Z,76583.63
2019-06-15T03:25:26.162Z,76576.63
2019-06-15T03:27:52.048Z,76566.63
2019-06-15T03:30:18.742Z,76556.61
2019-06-15T03:32:44.605Z,76549.61
2019-06-15T03:35:10.796Z,76545.61
2019-06-15T03:37:39.822Z,76538.60
2019-06-15T03:40:07.824Z,76530.59
2019-06-15T03:42:33.490Z,76524.59
2019-06-15T03:44:59.359Z,76520.59
2019-06-15T03:47:25.225Z,76522.59
2019-06-15T03:49:51.095Z,76518.59
2019-06-15T03:52:17.002Z,76508.58
2019-06-15T03:54:42.855Z,76514.59
2019-06-15T03:57:08.713Z,76513.58
2019-06-15T03:59:34.585Z,76511.58
2019-06-15T04:02:00.453Z,76512.58
2019-06-15T04:04:26.314Z,76512.58
2019-06-15T04:06:52.171Z,76516.59
2019-06-15T04:09:18.044Z,76520.59
2019-06-15T04:11:43.941Z,76520.59
2019-06-15T04:14:09.799Z,76510.58
2019-06-15T04:16:36.666Z,76500.57
2019-06-15T04:19:03.150Z,76503.58
2019-06-15T04:21:29.061Z,76502.58
2019-06-15T04:23:54.914Z,76504.58
2019-06-15T04:26:32.835Z,76494.56
2019-06-15T04:28:48.713Z,76497.57
2019-06-15T04:31:14.608Z,76492.56
2019-06-15T04:33:40.457Z,76500.57
2019-06-15T04:36:09.194Z,76504.58
2019-06-15T04:38:35.065Z,76501.58
2019-06-15T04:41:01.642Z,76509.58
2019-06-15T04:43:27.760Z,76513.58
2019-06-15T04:45:53.630Z,76517.59
2019-06-15T04:48:19.495Z,76511.58
2019-06-15T04:50:45.358Z,76504.58
2019-06-15T04:53:11.240Z,76496.57
2019-06-15T04:55:37.220Z,76493.56
2019-06-15T04:58:03.082Z,76481.56
2019-06-15T05:00:28.944Z,76481.56
2019-06-15T05:02:54.804Z,76483.56
2019-06-15T05:05:20.682Z,76484.56
2019-06-15T05:07:46.818Z,76490.56
2019-06-15T05:10:12.726Z,76494.56
2019-06-15T05:12:38.702Z,76500.57
2019-06-15T05:15:04.574Z,76514.59
2019-06-15T05:17:30.538Z,76502.58
2019-06-15T05:19:56.449Z,76501.58
2019-06-15T05:22:22.347Z,76496.57
2019-06-15T05:24:48.217Z,76488.56
2019-06-15T05:27:14.109Z,76499.57
2019-06-15T05:29:40.011Z,76488.56
2019-06-15T05:32:07.269Z,76489.56
2019-06-15T05:34:33.381Z,76495.57
2019-06-15T05:36:59.291Z,76493.56
2019-06-15T05:39:25.170Z,76495.57
2019-06-15T05:41:51.087Z,76488.56
2019-06-15T05:44:16.971Z,76491.56
2019-06-15T05:46:42.853Z,76484.56
2019-06-15T05:49:08.741Z,76494.56
2019-06-15T05:51:34.635Z,76494.56
2019-06-15T05:54:00.519Z,76498.57
2019-06-15T05:56:26.939Z,76486.56
2019-06-15T05:58:52.803Z,76486.56
2019-06-15T06:01:18.827Z,76482.56
2019-06-15T06:03:44.731Z,76480.56
2019-06-15T06:06:10.599Z,76480.56
2019-06-15T06:08:38.387Z,76475.55
2019-06-15T06:11:04.277Z,76478.56
2019-06-15T06:13:30.453Z,76469.55
2019-06-15T06:15:56.344Z,76463.55
2019-06-15T06:18:22.205Z,76461.55
2019-06-15T06:20:48.094Z,76458.55
2019-06-15T06:23:14.118Z,76460.55
2019-06-15T06:25:40.199Z,76456.55
2019-06-15T06:28:08.587Z,76452.54
2019-06-15T06:30:34.745Z,76454.55
2019-06-15T06:33:00.631Z,76447.53
2019-06-15T06:35:26.540Z,76448.54
2019-06-15T06:37:52.456Z,76446.53
2019-06-15T06:40:19.530Z,76447.53
2019-06-15T06:42:45.744Z,76450.54
2019-06-15T06:45:11.584Z,76443.53
2019-06-15T06:47:37.476Z,76452.54
2019-06-15T06:50:05.551Z,76453.54
2019-06-15T06:52:31.427Z,76460.55
2019-06-15T06:54:57.759Z,76456.55
2019-06-15T06:57:24.166Z,76457.55
2019-06-15T06:59:50.585Z,76464.55
2019-06-15T07:02:17.387Z,76463.55
2019-06-15T07:04:43.742Z,76468.55
2019-06-15T07:07:09.876Z,76465.55
2019-06-15T07:09:37.124Z,76465.55
2019-06-15T07:12:03.328Z,76472.55
2019-06-15T07:14:29.382Z,76470.55
2019-06-15T07:16:55.352Z,76468.55
2019-06-15T07:19:21.259Z,76462.55
2019-06-15T07:21:47.555Z,76461.55
2019-06-15T07:24:13.441Z,76452.54
2019-06-15T07:26:39.418Z,76444.53
2019-06-15T07:29:05.289Z,76445.53
2019-06-15T07:31:31.162Z,76443.53
2019-06-15T07:33:57.048Z,76442.53
2019-06-15T07:36:23.201Z,76448.54
2019-06-15T07:38:49.212Z,76448.54
2019-06-15T07:41:15.352Z,76445.53
2019-06-15T07:43:41.313Z,76442.53
2019-06-15T07:46:07.272Z,76443.53
2019-06-15T07:48:33.335Z,76436.53
2019-06-15T07:50:59.656Z,76432.53
2019-06-15T07:53:25.839Z,76429.52
2019-06-15T07:55:51.741Z,76422.52
2019-06-15T07:58:24.711Z,76434.53
2019-06-15T08:00:45.402Z,76428.52
2019-06-15T08:03:11.246Z,76434.53
2019-06-15T08:05:37.158Z,76434.53
2019-06-15T08:08:03.032Z,76437.53
2019-06-15T08:10:28.963Z,76440.53
2019-06-15T08:12:54.823Z,76435.53
2019-06-15T08:15:21.002Z,76423.52
2019-06-15T08:17:46.892Z,76425.52
2019-06-15T08:20:14.476Z,76422.52
2019-06-15T08:22:40.399Z,76432.53
2019-06-15T08:25:09.447Z,76433.53
2019-06-15T08:27:35.442Z,76429.52
2019-06-15T08:30:02.010Z,76425.52
2019-06-15T08:32:27.974Z,76423.52
2019-06-15T08:34:54.170Z,76434.53
2019-06-15T08:37:20.341Z,76437.53
2019-06-15T08:39:46.358Z,76440.53
2019-06-15T08:42:12.243Z,76438.53
2019-06-15T08:44:38.156Z,76434.53
2019-06-15T08:47:04.041Z,76429.52
2019-06-15T08:49:29.937Z,76422.52
2019-06-15T08:51:55.830Z,76429.52
2019-06-15T08:54:21.893Z,76420.52
2019-06-15T08:56:47.760Z,76420.52
2019-06-15T08:59:13.782Z,76414.52
2019-06-15T09:01:39.685Z,76417.52
2019-06-15T09:04:05.558Z,76419.52
2019-06-15T09:06:31.463Z,76420.52
2019-06-15T09:08:57.344Z,76420.52
2019-06-15T09:11:23.235Z,76420.52
2019-06-15T09:13:49.422Z,76420.52
2019-06-15T09:16:15.326Z,76419.52
2019-06-15T09:18:41.195Z,76417.52
2019-06-15T09:21:07.086Z,76414.52
2019-06-15T09:23:33.259Z,76400.50
2019-06-15T09:25:59.125Z,76406.51
2019-06-15T09:28:25.290Z,76401.50
2019-06-15T09:30:51.236Z,76401.50
2019-06-15T09:33:17.085Z,76398.50
2019-06-15T09:35:42.990Z,76394.50
2019-06-15T09:38:08.881Z,76395.50
2019-06-15T09:40:34.967Z,76393.50
2019-06-15T09:43:00.852Z,76390.50
2019-06-15T09:45:27.051Z,76387.50
2019-06-15T09:47:52.940Z,76379.48
2019-06-15T09:50:18.852Z,76378.48
2019-06-15T09:52:44.746Z,76381.49
2019-06-15T09:55:10.655Z,76383.49
2019-06-15T09:57:38.747Z,76385.49
2019-06-15T10:00:08.131Z,76380.49
2019-06-15T10:02:34.024Z,76371.48
2019-06-15T10:04:59.909Z,76373.48
2019-06-15T10:07:25.797Z,76370.48
2019-06-15T10:09:51.688Z,76372.48
2019-06-15T10:12:17.555Z,76374.48
2019-06-15T10:14:43.475Z,76376.48
2019-06-15T10:17:09.459Z,76376.48
2019-06-15T10:19:35.351Z,76378.48
2019-06-15T10:22:01.280Z,76375.48
2019-06-15T10:24:27.149Z,76384.49
2019-06-15T10:26:53.029Z,76378.48
2019-06-15T10:29:18.895Z,76388.50
2019-06-15T10:31:44.912Z,76384.49
2019-06-15T10:34:10.787Z,76378.48
2019-06-15T10:36:39.456Z,76379.48
2019-06-15T10:39:05.343Z,76379.48
2019-06-15T10:41:31.475Z,76379.48
2019-06-15T10:43:57.385Z,76377.48
2019-06-15T10:46:23.284Z,76376.48
2019-06-15T10:48:49.297Z,76382.49
2019-06-15T10:51:15.203Z,76381.49
2019-06-15T10:53:41.082Z,76386.50
2019-06-15T10:56:07.004Z,76380.49
2019-06-15T10:58:32.953Z,76382.49
2019-06-15T11:00:58.873Z,76389.50
2019-06-15T11:03:25.037Z,76384.49
2019-06-15T11:05:50.956Z,76384.49
2019-06-15T11:08:16.828Z,76390.50
2019-06-15T11:10:47.685Z,76380.49
2019-06-15T11:13:14.089Z,76386.50
2019-06-15T11:15:42.153Z,76394.50
2019-06-15T11:18:08.644Z,76379.48
2019-06-15T11:20:34.837Z,76383.49
2019-06-15T11:23:01.441Z,76389.50
2019-06-15T11:25:27.965Z,76384.49
2019-06-15T11:27:54.391Z,76392.50
2019-06-15T11:30:20.901Z,76389.50
2019-06-15T11:32:47.298Z,76390.50
2019-06-15T11:35:13.686Z,76392.50
2019-06-15T11:37:40.072Z,76397.50
2019-06-15T11:40:09.447Z,76401.50
2019-06-15T11:42:37.232Z,76404.51
2019-06-15T11:45:04.619Z,76405.51
2019-06-15T11:47:30.997Z,76404.51
2019-06-15T11:49:57.383Z,76400.50
2019-06-15T11:52:23.976Z,76396.50
2019-06-15T11:54:52.339Z,76393.50
2019-06-15T11:57:18.781Z,76397.50
2019-06-15T11:59:45.199Z,76396.50
2019-06-15T12:02:11.517Z,76395.50
2019-06-15T12:04:37.982Z,76391.50
2019-06-15T12:07:04.645Z,76391.50
2019-06-15T12:09:31.042Z,76364.48
2019-06-15T12:11:57.346Z,76357.48
2019-06-15T12:14:23.948Z,76358.48
2019-06-15T12:16:50.383Z,76353.47
2019-06-15T12:19:16.752Z,76350.47
2019-06-15T12:21:43.132Z,76352.47
2019-06-15T12:24:09.548Z,76344.47
2019-06-15T12:26:37.159Z,76344.47
2019-06-15T12:29:03.657Z,76341.47
2019-06-15T12:31:30.192Z,76344.47
2019-06-15T12:33:56.470Z,76342.47
2019-06-15T12:36:22.331Z,76347.47
2019-06-15T12:38:48.215Z,76350.47
2019-06-15T12:41:15.542Z,76353.47
2019-06-15T12:43:43.404Z,76353.47
2019-06-15T12:46:10.855Z,76357.48
2019-06-15T12:48:37.299Z,76355.48
2019-06-15T12:51:03.659Z,76359.48
2019-06-15T12:53:29.804Z,76358.48
2019-06-15T12:55:55.690Z,76354.47
2019-06-15T12:58:21.873Z,76356.48
2019-06-15T13:01:01.620Z,76362.48
2019-06-15T13:03:15.444Z,76363.48
2019-06-15T13:05:41.337Z,76368.48
2019-06-15T13:08:07.239Z,76370.48
2019-06-15T13:10:33.123Z,76371.48
2019-06-15T13:12:59.019Z,76370.48
2019-06-15T13:15:24.894Z,76374.48
2019-06-15T13:17:51.118Z,76367.48
2019-06-15T13:20:16.996Z,76366.48
2019-06-15T13:22:42.901Z,76366.48
2019-06-15T13:25:08.775Z,76364.48
2019-06-15T13:27:34.649Z,76363.48
2019-06-15T13:30:00.530Z,76367.48
2019-06-15T13:32:26.701Z,76363.48
2019-06-15T13:34:52.597Z,76365.48
2019-06-15T13:37:18.483Z,76367.48
2019-06-15T13:39:44.381Z,76362.48
2019-06-15T13:42:10.279Z,76363.48
2019-06-15T13:44:37.014Z,76369.48
2019-06-15T13:47:02.905Z,76375.48
2019-06-15T13:49:28.776Z,76376.48
2019-06-15T13:51:54.925Z,76374.48
2019-06-15T13:54:20.823Z,76378.48
2019-06-15T13:56:46.806Z,76375.48
2019-06-15T13:59:12.729Z,76381.49
2019-06-15T14:01:38.612Z,76385.49
2019-06-15T14:04:04.514Z,76394.50
2019-06-15T14:06:30.408Z,76391.50
2019-06-15T14:08:56.313Z,76405.51
2019-06-15T14:11:22.454Z,76398.50
2019-06-15T14:13:48.349Z,76402.50
2019-06-15T14:16:14.240Z,76401.50
2019-06-15T14:18:40.131Z,76403.50
2019-06-15T14:21:06.945Z,76410.52
2019-06-15T14:23:32.818Z,76415.52
2019-06-15T14:25:58.689Z,76416.52
2019-06-15T14:28:24.576Z,76416.52
2019-06-15T14:30:50.439Z,76424.52
2019-06-15T14:33:16.318Z,76415.52
2019-06-15T14:35:44.081Z,76424.52
2019-06-15T14:38:09.872Z,76422.52
2019-06-15T14:40:37.202Z,76418.52
2019-06-15T14:43:03.040Z,76426.52
2019-06-15T14:45:28.917Z,76418.52
2019-06-15T14:47:54.763Z,76424.52
2019-06-15T14:50:20.631Z,76425.52
2019-06-15T14:52:46.514Z,76420.52
2019-06-15T14:55:12.398Z,76417.52
2019-06-15T14:57:38.254Z,76410.52
2019-06-15T15:00:07.979Z,76410.52
2019-06-15T15:02:32.050Z,76412.52
2019-06-15T15:04:57.956Z,76408.51
2019-06-15T15:07:26.100Z,76407.51
2019-06-15T15:09:51.884Z,76409.51
2019-06-15T15:12:17.708Z,76412.52
2019-06-15T15:14:43.629Z,76404.51
2019-06-15T15:17:09.492Z,76409.51
2019-06-15T15:19:36.050Z,76405.51
2019-06-15T15:22:02.103Z,76410.52
2019-06-15T15:24:28.022Z,76410.52
2019-06-15T15:26:53.878Z,76407.51
2019-06-15T15:29:19.740Z,76411.52
2019-06-15T15:31:46.730Z,76420.52
2019-06-15T15:34:12.679Z,76422.52
2019-06-15T15:36:38.564Z,76422.52
2019-06-15T15:39:06.104Z,76414.52
2019-06-15T15:41:32.636Z,76426.52
2019-06-15T15:43:58.514Z,76426.52
2019-06-15T15:46:24.371Z,76428.52
2019-06-15T15:48:50.253Z,76432.53
2019-06-15T15:51:17.201Z,76437.53
2019-06-15T15:53:43.281Z,76440.53
2019-06-15T15:56:09.250Z,76448.54
2019-06-15T15:58:36.311Z,76448.54
2019-06-15T16:01:02.274Z,76449.54
2019-06-15T16:03:28.158Z,76449.54
2019-06-15T16:05:56.126Z,76451.54
2019-06-15T16:08:24.651Z,76456.55
2019-06-15T16:10:49.508Z,76452.54
2019-06-15T16:13:16.582Z,76452.54
2019-06-15T16:15:42.836Z,76456.55
2019-06-15T16:18:08.814Z,76452.54
2019-06-15T16:20:37.054Z,76458.55
2019-06-15T16:23:02.463Z,76466.55
2019-06-15T16:25:28.495Z,76469.55
2019-06-15T16:27:56.481Z,76467.55
2019-06-15T16:30:46.110Z,76471.55
2019-06-15T16:33:03.070Z,76474.55
2019-06-15T16:35:22.575Z,76478.56
2019-06-15T16:37:48.418Z,76483.56
2019-06-15T16:40:16.205Z,76489.56
2019-06-15T16:42:42.345Z,76488.56
2019-06-15T16:45:08.311Z,76494.56
2019-06-15T16:47:36.309Z,76495.57
2019-06-15T16:50:03.454Z,76493.56
2019-06-15T16:52:29.325Z,76494.56
2019-06-15T16:54:55.467Z,76494.56
2019-06-15T16:57:21.673Z,76498.57
2019-06-15T16:59:47.510Z,76503.58
2019-06-15T17:02:13.422Z,76500.57
2019-06-15T17:04:39.284Z,76508.58
2019-06-15T17:07:07.126Z,76507.58
2019-06-15T17:09:32.856Z,76517.59
2019-06-15T17:11:58.761Z,76523.59
2019-06-15T17:14:26.918Z,76525.59
2019-06-15T17:16:52.345Z,76524.59
2019-06-15T17:19:18.490Z,76526.59
2019-06-15T17:21:46.518Z,76526.59
2019-06-15T17:24:12.116Z,76513.58
2019-06-15T17:26:38.328Z,76520.59
2019-06-15T17:29:07.127Z,76530.59
2019-06-15T17:31:32.209Z,76530.59
2019-06-15T17:33:58.070Z,76535.59
2019-06-15T17:36:23.931Z,76536.59
2019-06-15T17:38:50.105Z,76524.59
2019-06-15T17:41:17.374Z,76532.59
2019-06-15T17:43:43.336Z,76541.60
2019-06-15T17:46:09.213Z,76538.60
2019-06-15T17:48:36.954Z,76540.60
2019-06-15T17:51:02.761Z,76540.60
2019-06-15T17:53:28.634Z,76548.61
2019-06-15T17:55:56.102Z,76552.61
2019-06-15T17:58:22.039Z,76553.61
2019-06-15T18:00:48.019Z,76553.61
2019-06-15T18:03:16.620Z,76557.61
2019-06-15T18:05:41.568Z,76562.62
2019-06-15T18:08:07.432Z,76556.61
2019-06-15T18:10:33.303Z,76552.61
2019-06-15T18:12:59.451Z,76557.61
2019-06-15T18:15:26.571Z,76565.63
2019-06-15T18:17:52.515Z,76566.63
2019-06-15T18:20:19.931Z,76567.63
2019-06-15T18:22:46.913Z,76566.63
2019-06-15T18:25:12.834Z,76562.62
2019-06-15T18:27:38.721Z,76558.61
2019-06-15T18:30:09.483Z,76558.61
2019-06-15T18:32:37.934Z,76558.61
2019-06-15T18:35:08.556Z,76563.62
2019-06-15T18:37:36.894Z,76562.62
2019-06-15T18:40:06.458Z,76558.61
2019-06-15T18:42:31.960Z,76560.62
2019-06-15T18:44:57.821Z,76552.61
2019-06-15T18:47:23.828Z,76561.62
2019-06-15T18:49:49.686Z,76561.62
2019-06-15T18:52:17.126Z,76561.62
2019-06-15T18:54:43.038Z,76569.63
2019-06-15T18:57:09.042Z,76572.63
2019-06-15T18:59:36.566Z,76572.63
2019-06-15T19:02:02.530Z,76572.63
2019-06-15T19:04:31.070Z,76582.63
2019-06-15T19:06:56.286Z,76586.63
2019-06-15T19:09:22.090Z,76585.63
2019-06-15T19:11:48.469Z,76591.64
2019-06-15T19:14:16.432Z,76593.64
2019-06-15T19:16:42.022Z,76593.64
2019-06-15T19:19:09.179Z,76595.64
2019-06-15T19:21:35.171Z,76603.64
2019-06-15T19:24:01.064Z,76612.66
2019-06-15T19:26:27.000Z,76618.66
2019-06-15T19:28:52.948Z,76624.66
2019-06-15T19:31:18.820Z,76632.67
2019-06-15T19:33:46.719Z,76646.68
2019-06-15T19:36:12.400Z,76655.69
2019-06-15T19:38:38.590Z,76673.70
2019-06-15T19:41:06.726Z,76684.70
2019-06-15T19:43:32.161Z,76691.71
2019-06-15T19:45:58.040Z,76702.72
2019-06-15T19:48:26.557Z,76713.73
2019-06-15T19:50:51.910Z,76728.74
2019-06-15T19:53:17.880Z,76727.74
2019-06-15T19:55:46.377Z,76735.75
2019-06-15T19:58:11.750Z,76737.75
2019-06-15T20:00:37.609Z,76740.75
2019-06-15T20:03:06.883Z,76739.75
2019-06-15T20:05:31.494Z,76736.75
2019-06-15T20:07:57.363Z,76738.75
2019-06-15T20:10:23.343Z,76744.75
2019-06-15T20:12:49.217Z,76745.75
2019-06-15T20:15:16.858Z,76744.75
2019-06-15T20:17:43.047Z,76750.76
2019-06-15T20:20:09.178Z,76755.77
2019-06-15T20:22:37.284Z,76756.77
2019-06-15T20:25:06.466Z,76762.77
2019-06-15T20:27:32.156Z,76766.77
2019-06-15T20:29:58.373Z,76761.77
2019-06-15T20:32:26.241Z,76761.77
2019-06-15T20:34:52.530Z,76766.77
2019-06-15T20:37:19.570Z,76767.77
2019-06-15T20:39:46.742Z,76766.77
2019-06-15T20:42:12.874Z,76766.77
2019-06-15T20:44:38.767Z,76764.77
2019-06-15T20:47:06.550Z,76761.77
2019-06-15T20:49:32.471Z,76758.77
2019-06-15T20:51:58.341Z,76754.77
2019-06-15T20:54:24.333Z,76754.77
2019-06-15T20:56:50.214Z,76757.77
2019-06-15T20:59:16.981Z,76760.77
2019-06-15T21:01:42.963Z,76757.77
2019-06-15T21:04:09.108Z,76764.77
2019-06-15T21:06:37.125Z,76761.77
2019-06-15T21:09:06.644Z,76763.77
2019-06-15T21:11:32.172Z,76765.77
2019-06-15T21:13:58.055Z,76771.77
2019-06-15T21:16:26.095Z,76778.78
2019-06-15T21:18:51.735Z,76785.78
2019-06-15T21:21:17.577Z,76788.78
2019-06-15T21:23:45.878Z,76796.80
2019-06-15T21:26:11.535Z,76788.78
2019-06-15T21:28:37.433Z,76792.79
2019-06-15T21:31:03.311Z,76792.79
2019-06-15T21:33:29.161Z,76796.80
2019-06-15T21:35:56.694Z,76800.80
2019-06-15T21:38:22.736Z,76805.80
2019-06-15T21:40:48.605Z,76813.81
2019-06-15T21:43:14.611Z,76814.81
2019-06-15T21:45:41.554Z,76817.81
2019-06-15T21:48:07.634Z,76816.81
2019-06-15T21:50:36.099Z,76820.81
2019-06-15T21:53:01.618Z,76825.81
2019-06-15T21:55:27.639Z,76824.81
2019-06-15T21:57:56.250Z,76826.81
2019-06-15T22:00:26.183Z,76825.81
2019-06-15T22:02:52.218Z,76833.83
2019-06-15T22:05:18.102Z,76834.83
2019-06-15T22:07:44.064Z,76837.83
2019-06-15T22:10:10.252Z,76837.83
2019-06-15T22:12:38.640Z,76837.83
2019-06-15T22:15:06.873Z,76840.83
2019-06-15T22:17:32.647Z,76850.84
2019-06-15T22:19:58.517Z,76857.84
2019-06-15T22:22:27.147Z,76858.84
2019-06-15T22:24:52.067Z,76857.84
2019-06-15T22:27:17.973Z,76861.84
2019-06-15T22:29:43.839Z,76866.84
2019-06-15T22:32:09.745Z,76869.85
2019-06-15T22:34:36.290Z,76871.85
2019-06-15T22:37:02.712Z,76872.86
2019-06-15T22:39:28.586Z,76873.86
2019-06-15T22:41:56.117Z,76872.86
2019-06-15T22:44:22.057Z,76874.86
2019-06-15T22:46:47.971Z,76877.86
2019-06-15T22:49:16.084Z,76883.86
2019-06-15T22:51:41.807Z,76887.87
2019-06-15T22:54:07.694Z,76888.87
2019-06-15T22:56:33.593Z,76888.87
2019-06-15T22:58:59.749Z,76883.86
2019-06-15T23:01:26.175Z,76878.86
2019-06-15T23:03:52.109Z,76880.86
2019-06-15T23:06:31.175Z,76882.86
2019-06-15T23:08:47.001Z,76888.87
2019-06-15T23:11:13.124Z,76888.87
2019-06-15T23:13:39.015Z,76891.87
2019-06-15T23:16:04.996Z,76885.86
2019-06-15T23:18:31.181Z,76896.88
2019-06-15T23:20:57.086Z,76898.88
2019-06-15T23:23:22.911Z,76892.88
2019-06-15T23:25:48.782Z,76897.88
2019-06-15T23:28:16.567Z,76903.88
2019-06-15T23:30:43.025Z,76903.88
2019-06-15T23:33:08.892Z,76904.88
2019-06-15T23:35:36.649Z,76908.89
2019-06-15T23:38:02.538Z,76912.89
2019-06-15T23:40:28.713Z,76915.89
2019-06-15T23:42:56.544Z,76916.89
2019-06-15T23:45:22.247Z,76915.89
2019-06-15T23:47:48.238Z,76910.89
2019-06-15T23:50:16.794Z,76915.89
2019-06-15T23:52:41.864Z,76916.89
2019-06-15T23:55:08.525Z,76906.88
2019-06-15T23:57:36.781Z,76906.88
